createdAt,value
2022-08-23T00:00:13.981Z,68.19
2022-08-23T00:05:16.379Z,67.57
2022-08-23T00:10:18.990Z,67.66
2022-08-23T00:15:22.014Z,67.71
2022-08-23T00:20:24.444Z,67.07
2022-08-23T00:25:27.152Z,67.65
2022-08-23T00:30:29.730Z,68.07
2022-08-23T00:35:32.240Z,68.84
2022-08-23T00:40:34.704Z,69.14
2022-08-23T00:46:33.018Z,69.37
2022-08-23T00:51:58.163Z,69.47
2022-08-23T00:57:06.195Z,69.89
2022-08-23T01:02:10.249Z,70.02
2022-08-23T01:07:46.527Z,70.29
2022-08-23T01:12:57.741Z,70.72
2022-08-23T01:18:07.123Z,70.38
2022-08-23T01:23:43.062Z,70.86
2022-08-23T01:28:46.135Z,70.77
2022-08-23T01:33:54.836Z,71.19
2022-08-23T01:38:57.570Z,71.51
2022-08-23T01:44:00.640Z,71.84
2022-08-23T01:49:08.316Z,71.24
2022-08-23T01:54:11.637Z,71.07
2022-08-23T01:59:14.603Z,71.00
2022-08-23T02:04:17.033Z,71.25
2022-08-23T02:09:19.721Z,70.91
2022-08-23T02:14:22.151Z,70.58
2022-08-23T02:19:24.800Z,69.99
2022-08-23T02:24:27.773Z,70.07
2022-08-23T02:29:30.884Z,70.86
2022-08-23T02:34:33.994Z,70.64
2022-08-23T02:39:38.809Z,70.98
2022-08-23T02:44:41.453Z,70.95
2022-08-23T02:49:43.903Z,70.86
2022-08-23T02:54:46.375Z,70.81
2022-08-23T02:59:48.837Z,71.07
2022-08-23T03:04:51.847Z,70.79
2022-08-23T03:09:54.524Z,70.74
2022-08-23T03:14:56.977Z,70.45
2022-08-23T03:19:59.838Z,70.33
2022-08-23T03:25:02.400Z,70.81
2022-08-23T03:30:06.849Z,70.61
2022-08-23T03:35:15.560Z,70.71
2022-08-23T03:40:18.020Z,70.86
2022-08-23T03:45:20.554Z,70.82
2022-08-23T03:50:23.083Z,71.11
2022-08-23T03:55:25.542Z,71.04
2022-08-23T04:00:28.203Z,70.88
2022-08-23T04:05:30.737Z,70.74
2022-08-23T04:10:33.249Z,71.53
2022-08-23T04:15:36.308Z,72.09
2022-08-23T04:20:38.717Z,71.61
2022-08-23T04:25:43.835Z,71.75
2022-08-23T04:30:47.016Z,71.67
2022-08-23T04:35:49.570Z,71.70
2022-08-23T04:41:11.236Z,71.53
2022-08-23T04:46:15.999Z,71.25
2022-08-23T04:51:18.899Z,71.41
2022-08-23T04:56:21.334Z,71.64
2022-08-23T05:01:26.006Z,71.29
2022-08-23T05:06:29.643Z,71.60
2022-08-23T05:11:32.024Z,71.63
2022-08-23T05:16:34.471Z,70.78
2022-08-23T05:21:36.984Z,71.26
2022-08-23T05:26:39.360Z,70.80
2022-08-23T05:31:41.880Z,70.30
2022-08-23T05:36:50.244Z,70.72
2022-08-23T05:41:58.548Z,70.20
2022-08-23T05:47:01.007Z,69.75
2022-08-23T05:52:09.033Z,69.30
2022-08-23T05:57:12.009Z,69.54
2022-08-23T06:02:14.504Z,69.02
2022-08-23T06:07:17.354Z,68.86
2022-08-23T06:12:19.804Z,68.53
2022-08-23T06:17:22.428Z,68.24
2022-08-23T06:22:24.994Z,67.78
2022-08-23T06:27:27.397Z,67.62
2022-08-23T06:32:30.087Z,67.49
2022-08-23T06:37:32.637Z,67.59
2022-08-23T06:42:38.484Z,67.44
2022-08-23T06:47:44.673Z,67.49
2022-08-23T06:52:51.555Z,66.50
2022-08-23T06:57:54.093Z,66.85
2022-08-23T07:02:56.615Z,66.70
2022-08-23T07:08:30.115Z,66.77
2022-08-23T07:13:32.611Z,66.54
2022-08-23T07:18:35.312Z,66.22
2022-08-23T07:23:38.220Z,65.79
2022-08-23T07:28:41.249Z,65.64
2022-08-23T07:33:45.023Z,65.53
2022-08-23T07:38:47.730Z,65.38
2022-08-23T07:43:50.370Z,64.93
2022-08-23T07:48:54.783Z,64.50
2022-08-23T07:53:57.765Z,64.26
2022-08-23T07:59:01.895Z,63.49
2022-08-23T08:04:08.595Z,63.29
2022-08-23T08:09:11.920Z,62.96
2022-08-23T08:14:15.780Z,62.73
2022-08-23T08:19:19.858Z,62.75
2022-08-23T08:24:22.583Z,61.68
2022-08-23T08:29:25.146Z,61.55
2022-08-23T08:34:27.629Z,61.17
2022-08-23T08:39:33.778Z,60.48
2022-08-23T08:44:53.510Z,59.82
2022-08-23T08:50:06.044Z,59.64
2022-08-23T08:55:33.641Z,58.97
2022-08-23T09:00:39.489Z,58.43
2022-08-23T09:06:12.309Z,58.16
2022-08-23T09:11:54.221Z,58.32
2022-08-23T09:17:05.892Z,57.82
2022-08-23T09:22:24.772Z,57.39
2022-08-23T09:27:27.298Z,56.75
2022-08-23T09:32:39.714Z,56.54
2022-08-23T09:38:06.603Z,56.53
2022-08-23T09:43:14.105Z,55.43
2022-08-23T09:48:33.460Z,55.21
2022-08-23T09:53:40.988Z,54.04
2022-08-23T09:58:54.064Z,53.20
2022-08-23T10:04:31.777Z,52.28
2022-08-23T10:09:34.549Z,52.53
2022-08-23T10:14:37.014Z,51.74
2022-08-23T10:20:01.462Z,50.96
2022-08-23T10:25:13.207Z,49.75
2022-08-23T10:30:19.568Z,49.64
2022-08-23T10:35:38.683Z,49.70
2022-08-23T10:40:55.354Z,48.15
2022-08-23T10:46:00.954Z,48.06
2022-08-23T10:51:21.184Z,48.22
2022-08-23T10:56:25.556Z,47.61
2022-08-23T11:01:58.629Z,46.13
2022-08-23T11:07:14.466Z,47.12
2022-08-23T11:12:24.704Z,46.77
2022-08-23T11:17:44.334Z,47.18
2022-08-23T11:22:58.613Z,47.52
2022-08-23T11:28:30.550Z,46.52
2022-08-23T11:33:43.887Z,46.67
2022-08-23T11:38:49.367Z,44.64
2022-08-23T11:43:57.936Z,44.50
2022-08-23T11:49:21.528Z,43.55
2022-08-23T11:54:50.680Z,43.83
2022-08-23T12:00:02.651Z,43.45
2022-08-23T12:05:21.199Z,43.29
2022-08-23T12:10:43.738Z,42.69
2022-08-23T12:16:21.801Z,41.36
2022-08-23T12:21:41.672Z,41.81
2022-08-23T12:26:59.707Z,41.95
2022-08-23T12:32:18.214Z,42.06
2022-08-23T12:37:30.062Z,41.40
2022-08-23T12:42:36.522Z,41.81
2022-08-23T12:47:43.179Z,41.69
2022-08-23T12:53:01.460Z,42.30
2022-08-23T12:58:04.983Z,41.49
2022-08-23T13:03:20.550Z,41.64
2022-08-23T13:08:43.401Z,42.06
2022-08-23T13:13:46.467Z,42.95
2022-08-23T13:18:49.275Z,42.83
2022-08-23T13:24:00.837Z,43.49
2022-08-23T13:29:09.573Z,44.03
2022-08-23T13:34:12.074Z,44.21
2022-08-23T13:39:15.579Z,44.51
2022-08-23T13:44:20.919Z,45.03
2022-08-23T13:49:30.331Z,45.84
2022-08-23T13:54:34.340Z,46.46
2022-08-23T13:59:46.967Z,46.82
2022-08-23T14:04:49.846Z,47.11
2022-08-23T14:09:55.063Z,48.06
2022-08-23T14:14:58.846Z,48.79
2022-08-23T14:25:25.189Z,48.68
2022-08-23T14:30:37.210Z,49.03
2022-08-23T14:35:39.951Z,49.40
2022-08-23T14:40:58.694Z,50.34
2022-08-23T14:46:01.869Z,50.12
2022-08-23T14:51:05.020Z,50.36
2022-08-23T14:56:21.131Z,50.47
2022-08-23T15:01:24.753Z,50.65
2022-08-23T15:06:27.202Z,51.42
2022-08-23T15:16:52.301Z,53.11
2022-08-23T15:21:54.949Z,54.33
2022-08-23T15:27:00.295Z,55.39
2022-08-23T15:32:02.769Z,55.69
2022-08-23T15:37:06.122Z,57.86
2022-08-23T15:42:08.685Z,57.84
2022-08-23T15:47:22.479Z,58.26
2022-08-23T15:52:25.191Z,58.45
2022-08-23T15:57:29.239Z,59.57
2022-08-23T16:02:45.668Z,61.40
2022-08-23T16:07:57.902Z,61.67
2022-08-23T16:13:03.970Z,62.47
2022-08-23T16:18:07.147Z,62.91
2022-08-23T16:23:09.793Z,61.22
2022-08-23T16:28:12.409Z,61.64
2022-08-23T16:33:15.046Z,61.27
2022-08-23T16:38:17.631Z,59.92
2022-08-23T16:43:20.243Z,59.82
2022-08-23T16:48:22.693Z,58.48
2022-08-23T16:53:27.424Z,58.32
2022-08-23T16:58:29.956Z,57.91
2022-08-23T17:03:32.887Z,57.81
2022-08-23T17:08:36.040Z,57.23
2022-08-23T17:13:38.757Z,57.43
2022-08-23T17:18:41.444Z,57.40
2022-08-23T17:23:43.940Z,57.66
2022-08-23T17:28:47.285Z,57.24
2022-08-23T17:33:50.071Z,56.68
2022-08-23T17:38:52.659Z,56.65
2022-08-23T17:43:56.305Z,56.14
2022-08-23T17:49:09.296Z,56.12
2022-08-23T17:54:15.912Z,56.03
2022-08-23T17:59:22.485Z,56.02
2022-08-23T18:04:25.014Z,56.08
2022-08-23T18:09:27.663Z,55.74
2022-08-23T18:14:30.572Z,55.92
2022-08-23T18:19:33.127Z,55.58
2022-08-23T18:24:36.064Z,55.95
2022-08-23T18:29:38.807Z,56.52
2022-08-23T18:34:41.462Z,56.93
2022-08-23T18:39:44.673Z,57.17
2022-08-23T18:44:47.138Z,57.11
2022-08-23T18:49:50.181Z,57.09
2022-08-23T18:54:52.652Z,56.94
2022-08-23T18:59:55.228Z,56.72
2022-08-23T19:04:59.097Z,56.78
2022-08-23T19:10:01.963Z,56.94
2022-08-23T19:15:05.423Z,57.58
2022-08-23T19:20:09.221Z,57.85
2022-08-23T19:25:12.098Z,57.88
2022-08-23T19:30:17.454Z,58.45
2022-08-23T19:35:19.942Z,58.57
2022-08-23T19:40:22.690Z,59.43
2022-08-23T19:45:25.258Z,60.84
2022-08-23T19:50:31.927Z,60.88
2022-08-23T19:55:35.151Z,61.77
2022-08-23T20:00:40.177Z,61.47
2022-08-23T20:05:42.769Z,61.92
2022-08-23T20:10:46.073Z,61.89
2022-08-23T20:15:49.719Z,61.22
2022-08-23T20:20:54.506Z,61.07
2022-08-23T20:25:57.598Z,61.06
2022-08-23T20:31:15.733Z,61.48
2022-08-23T20:36:18.944Z,61.91
2022-08-23T20:41:36.798Z,64.82
2022-08-23T20:46:40.787Z,65.44
2022-08-23T20:51:43.419Z,67.90
2022-08-23T20:56:46.007Z,67.80
2022-08-23T21:01:48.972Z,67.57
2022-08-23T21:06:53.616Z,68.29
2022-08-23T21:11:57.819Z,67.81
2022-08-23T21:17:00.228Z,68.40
2022-08-23T21:22:02.705Z,67.56
2022-08-23T21:27:08.802Z,67.16
2022-08-23T21:32:12.261Z,66.96
2022-08-23T21:37:14.802Z,66.73
2022-08-23T21:42:23.127Z,66.82
2022-08-23T21:47:26.643Z,66.99
2022-08-23T21:52:29.027Z,67.64
2022-08-23T21:57:31.915Z,67.70
2022-08-23T22:02:34.364Z,66.87
2022-08-23T22:07:37.381Z,66.88
2022-08-23T22:12:40.149Z,66.89
2022-08-23T22:17:42.825Z,66.24
2022-08-23T22:22:45.225Z,66.39
2022-08-23T22:27:47.915Z,65.84
2022-08-23T22:32:50.551Z,66.03
2022-08-23T22:38:12.737Z,65.83
2022-08-23T22:43:15.819Z,65.67
2022-08-23T22:48:18.839Z,65.72
2022-08-23T22:53:21.433Z,65.82
2022-08-23T22:58:23.959Z,65.52
2022-08-23T23:03:26.369Z,65.92
2022-08-23T23:08:28.829Z,65.73
2022-08-23T23:13:32.084Z,65.89
2022-08-23T23:18:35.548Z,65.82
2022-08-23T23:23:41.808Z,65.74
2022-08-23T23:28:44.325Z,65.80
2022-08-23T23:33:46.904Z,65.96
2022-08-23T23:38:49.558Z,65.74
2022-08-23T23:43:52.542Z,66.28
2022-08-23T23:48:55.329Z,66.05
2022-08-23T23:53:59.086Z,66.67
2022-08-23T23:59:03.890Z,66.59
